Time;durP1;ratioP1;P1;durP2;ratioP2;P2;SDS_P1;SDS_P2;PMS_P1;PMS_P2;Temp;Humidity;BMP_temperature;BMP_pressure;BME280_temperature;BME280_humidity;BME280_pressure;Samples;Min_cycle;Max_cycle;Signal;HPM_P1;HPM_P2
2022/10/10 00:02:24;;;;;;;;;;;10.20;99.90;;;;;;5054803;28;19928;-81
2022/10/10 00:04:51;;;;;;;;;;;10.20;99.90;;;;;;5054713;28;19909;-81
2022/10/10 00:07:18;;;;;;;;;;;10.20;99.90;;;;;;5054800;28;20271;-82
2022/10/10 00:09:44;;;;;;;;;;;10.10;99.90;;;;;;5054728;28;20328;-81
2022/10/10 00:12:10;;;;;;;;;;;10.10;99.90;;;;;;5054678;28;20257;-82
2022/10/10 00:14:35;;;;;;;;;;;10.00;99.90;;;;;;5054638;28;19909;-82
2022/10/10 00:17:01;;;;;;;;;;;10.00;99.90;;;;;;5054517;28;19913;-82
2022/10/10 00:19:26;;;;;;;;;;;10.00;99.90;;;;;;5054400;28;19915;-82
2022/10/10 00:21:51;;;;;;;;;;;10.00;99.90;;;;;;5054364;28;19915;-81
2022/10/10 00:24:17;;;;;;;;;;;10.00;99.90;;;;;;5054362;28;19916;-82
2022/10/10 00:26:42;;;;;;;;;;;10.00;99.90;;;;;;5054264;28;19962;-82
2022/10/10 00:29:08;;;;;;;;;;;10.00;99.90;;;;;;5054380;28;19954;-82
2022/10/10 00:31:33;;;;;;;;;;;10.00;99.90;;;;;;5054026;28;19999;-82
2022/10/10 00:33:59;;;;;;;;;;;10.00;99.90;;;;;;5052985;28;20433;-82
2022/10/10 00:36:25;;;;;;;;;;;10.00;99.90;;;;;;5054204;28;20011;-82
2022/10/10 00:38:50;;;;;;;;;;;10.00;99.90;;;;;;5052712;28;19909;-82
2022/10/10 00:41:16;;;;;;;;;;;9.90;99.90;;;;;;5053801;28;20335;-81
2022/10/10 00:43:41;;;;;;;;;;;9.90;99.90;;;;;;5053746;28;19975;-81
2022/10/10 00:46:07;;;;;;;;;;;9.90;99.90;;;;;;5052803;28;19913;-81
2022/10/10 00:48:41;;;;;;;;;;;9.90;99.90;;;;;;5053853;28;19916;-81
2022/10/10 00:51:11;;;;;;;;;;;9.90;99.90;;;;;;5054083;28;19908;-82
2022/10/10 00:53:38;;;;;;;;;;;9.90;99.90;;;;;;5054265;28;20365;-82
2022/10/10 00:56:04;;;;;;;;;;;9.90;99.90;;;;;;5053914;28;19911;-82
2022/10/10 00:58:30;;;;;;;;;;;9.90;99.90;;;;;;5053955;28;19908;-82
2022/10/10 01:00:56;;;;;;;;;;;9.80;99.90;;;;;;5053759;28;19958;-82
2022/10/10 01:03:21;;;;;;;;;;;9.70;99.90;;;;;;5054071;28;19913;-82
2022/10/10 01:05:48;;;;;;;;;;;9.70;99.90;;;;;;5053829;28;19999;-81
2022/10/10 01:08:15;;;;;;;;;;;9.70;99.90;;;;;;5054527;28;19915;-81
2022/10/10 01:10:47;;;;;;;;;;;9.60;99.90;;;;;;5054162;28;20293;-81
2022/10/10 01:13:35;;;;;;;;;;;9.50;99.90;;;;;;5053849;28;19962;-81
2022/10/10 01:16:16;;;;;;;;;;;9.50;99.90;;;;;;5046822;28;19964;-82
2022/10/10 01:18:42;;;;;;;;;;;9.50;99.90;;;;;;5052837;28;19916;-81
2022/10/10 01:21:10;;;;;;;;;;;9.50;99.90;;;;;;5053865;28;19991;-82
2022/10/10 01:23:36;;;;;;;;;;;9.40;99.90;;;;;;5052451;28;20381;-87
2022/10/10 01:26:07;;;;;;;;;;;9.30;99.90;;;;;;5052053;28;19918;-84
2022/10/10 01:28:33;;;;;;;;;;;9.30;99.90;;;;;;5054064;28;19909;-81
2022/10/10 01:30:58;;;;;;;;;;;9.30;99.90;;;;;;5053335;28;20304;-82
2022/10/10 01:33:30;;;;;;;;;;;9.30;99.90;;;;;;5053377;28;20324;-82
2022/10/10 01:36:05;;;;;;;;;;;9.30;99.90;;;;;;5051872;28;20363;-82
2022/10/10 01:38:33;;;;;;;;;;;9.20;99.90;;;;;;5053535;28;20259;-82
2022/10/10 01:41:05;;;;;;;;;;;9.30;99.90;;;;;;5051747;28;19909;-82
2022/10/10 01:43:30;;;;;;;;;;;9.20;99.90;;;;;;5052939;28;19999;-82
2022/10/10 01:45:56;;;;;;;;;;;9.20;99.90;;;;;;5053258;28;19952;-82
2022/10/10 01:48:27;;;;;;;;;;;9.20;99.90;;;;;;5051730;28;19909;-81
2022/10/10 01:50:56;;;;;;;;;;;9.20;99.90;;;;;;5053178;28;20000;-81
2022/10/10 01:53:25;;;;;;;;;;;9.20;99.90;;;;;;5051766;28;19909;-82
2022/10/10 01:55:50;;;;;;;;;;;9.20;99.90;;;;;;5052614;28;20003;-82
2022/10/10 01:58:34;;;;;;;;;;;9.20;99.90;;;;;;5055686;28;19956;-82
2022/10/10 02:01:06;;;;;;;;;;;9.20;99.90;;;;;;5056213;28;19966;-82
2022/10/10 02:03:36;;;;;;;;;;;9.20;99.90;;;;;;5057135;28;19959;-82
2022/10/10 02:06:21;;;;;;;;;;;9.20;99.90;;;;;;5055944;28;19909;-82
2022/10/10 02:09:13;;;;;;;;;;;9.20;99.90;;;;;;5053299;28;19909;-81
2022/10/10 02:11:39;;;;;;;;;;;9.20;99.90;;;;;;5050884;28;19913;-81
2022/10/10 02:14:09;;;;;;;;;;;9.20;99.90;;;;;;5051232;28;19915;-82
2022/10/10 02:16:37;;;;;;;;;;;9.20;99.90;;;;;;5052621;28;19912;-82
2022/10/10 02:19:05;;;;;;;;;;;9.20;99.90;;;;;;5052995;28;19908;-81
2022/10/10 02:21:30;;;;;;;;;;;9.20;99.90;;;;;;5053007;28;19956;-81
2022/10/10 02:23:58;;;;;;;;;;;9.20;99.90;;;;;;5052395;28;19951;-82
2022/10/10 02:26:25;;;;;;;;;;;9.20;99.90;;;;;;5051594;28;19909;-81
2022/10/10 02:29:02;;;;;;;;;;;9.20;99.90;;;;;;5052628;28;20643;-81
2022/10/10 02:31:31;;;;;;;;;;;9.20;99.90;;;;;;5052616;28;19916;-81
2022/10/10 02:34:00;;;;;;;;;;;9.20;99.90;;;;;;5050980;28;19916;-81
2022/10/10 02:36:27;;;;;;;;;;;9.20;99.90;;;;;;5052342;28;19913;-82
2022/10/10 02:38:54;;;;;;;;;;;9.20;99.90;;;;;;5053553;28;19962;-82
2022/10/10 02:41:20;;;;;;;;;;;9.30;99.90;;;;;;5056290;28;20433;-82
2022/10/10 02:43:46;;;;;;;;;;;9.20;99.90;;;;;;5055903;28;20009;-82
2022/10/10 02:46:13;;;;;;;;;;;9.20;99.90;;;;;;5056346;28;19908;-82
2022/10/10 02:48:39;;;;;;;;;;;9.30;99.90;;;;;;5056021;28;20420;-81
2022/10/10 02:51:04;;;;;;;;;;;9.30;99.90;;;;;;5054662;28;19913;-82
2022/10/10 02:53:30;;;;;;;;;;;9.30;99.90;;;;;;5054944;28;19913;-81
2022/10/10 02:55:55;;;;;;;;;;;9.30;99.90;;;;;;5054565;28;19909;-82
2022/10/10 02:58:21;;;;;;;;;;;9.30;99.90;;;;;;5055981;28;19940;-81
2022/10/10 03:00:46;;;;;;;;;;;9.30;99.90;;;;;;5055734;28;19999;-82
2022/10/10 03:03:12;;;;;;;;;;;9.30;99.90;;;;;;5056119;28;19913;-81
2022/10/10 03:05:37;;;;;;;;;;;9.30;99.90;;;;;;5055626;28;20290;-82
2022/10/10 03:08:03;;;;;;;;;;;9.30;99.90;;;;;;5056346;28;19909;-81
2022/10/10 03:10:28;;;;;;;;;;;9.30;99.90;;;;;;5054762;28;19916;-81
2022/10/10 03:12:54;;;;;;;;;;;9.30;99.90;;;;;;5054721;28;19909;-81
2022/10/10 03:15:19;;;;;;;;;;;9.30;99.90;;;;;;5054376;28;20047;-81
2022/10/10 03:17:44;;;;;;;;;;;9.30;99.90;;;;;;5055606;28;19912;-81
2022/10/10 03:20:10;;;;;;;;;;;9.30;99.90;;;;;;5055942;28;19909;-81
2022/10/10 03:22:36;;;;;;;;;;;9.30;99.90;;;;;;5055760;28;19966;-82
2022/10/10 03:25:01;;;;;;;;;;;9.30;99.90;;;;;;5055382;28;19916;-81
2022/10/10 03:27:27;;;;;;;;;;;9.30;99.90;;;;;;5054327;28;19912;-81
2022/10/10 03:29:52;;;;;;;;;;;9.30;99.90;;;;;;5055580;28;19915;-81
2022/10/10 03:32:18;;;;;;;;;;;9.30;99.90;;;;;;5054247;28;19909;-81
2022/10/10 03:34:43;;;;;;;;;;;9.30;99.90;;;;;;5053935;28;20294;-81
2022/10/10 03:37:09;;;;;;;;;;;9.30;99.90;;;;;;5055197;28;20412;-84
2022/10/10 03:39:34;;;;;;;;;;;9.20;99.90;;;;;;5055328;28;20370;-81
2022/10/10 03:42:00;;;;;;;;;;;9.30;99.90;;;;;;5053909;28;19909;-81
2022/10/10 03:44:25;;;;;;;;;;;9.30;99.90;;;;;;5053570;28;19909;-81
2022/10/10 03:46:51;;;;;;;;;;;9.30;99.90;;;;;;5055278;28;19909;-81
2022/10/10 03:49:16;;;;;;;;;;;9.30;99.90;;;;;;5053403;28;20374;-80
2022/10/10 03:51:42;;;;;;;;;;;9.30;99.90;;;;;;5055207;28;19913;-81
2022/10/10 03:54:07;;;;;;;;;;;9.30;99.90;;;;;;5054745;28;19988;-82
2022/10/10 03:56:32;;;;;;;;;;;9.30;99.90;;;;;;5055117;28;20440;-81
2022/10/10 03:58:59;;;;;;;;;;;9.30;99.90;;;;;;5053732;28;19987;-81
2022/10/10 04:01:26;;;;;;;;;;;9.30;99.90;;;;;;5053724;28;19917;-81
2022/10/10 04:03:51;;;;;;;;;;;9.30;99.90;;;;;;5054622;28;19992;-83
2022/10/10 04:06:17;;;;;;;;;;;9.30;99.90;;;;;;5055136;28;19952;-81
2022/10/10 04:08:42;;;;;;;;;;;9.20;99.90;;;;;;5055378;28;19958;-81
2022/10/10 04:11:08;;;;;;;;;;;9.30;99.90;;;;;;5054576;28;19958;-81
2022/10/10 04:13:34;;;;;;;;;;;9.30;99.90;;;;;;5054830;28;19909;-87
2022/10/10 04:15:59;;;;;;;;;;;9.30;99.90;;;;;;5054506;28;19909;-81
2022/10/10 04:18:25;;;;;;;;;;;9.30;99.90;;;;;;5055058;28;19916;-81
2022/10/10 04:20:50;;;;;;;;;;;9.30;99.90;;;;;;5054670;28;19915;-81
2022/10/10 04:23:16;;;;;;;;;;;9.30;99.90;;;;;;5054940;28;19917;-83
2022/10/10 04:25:42;;;;;;;;;;;9.40;99.90;;;;;;5053200;28;20418;-81
2022/10/10 04:28:10;;;;;;;;;;;9.40;99.90;;;;;;5052945;28;20358;-80
2022/10/10 04:30:35;;;;;;;;;;;9.40;99.90;;;;;;5054089;28;19959;-80
2022/10/10 04:33:00;;;;;;;;;;;9.50;99.90;;;;;;5054053;28;19912;-80
2022/10/10 04:35:26;;;;;;;;;;;9.60;99.90;;;;;;5053573;28;20015;-81
2022/10/10 04:37:52;;;;;;;;;;;9.60;99.90;;;;;;5052726;28;19966;-80
2022/10/10 04:40:17;;;;;;;;;;;9.60;99.90;;;;;;5053969;28;19912;-81
2022/10/10 04:42:43;;;;;;;;;;;9.70;99.90;;;;;;5052610;28;19955;-82
2022/10/10 04:45:09;;;;;;;;;;;9.70;99.90;;;;;;5054070;28;19909;-81
2022/10/10 04:47:34;;;;;;;;;;;9.70;99.90;;;;;;5052844;28;19909;-82
2022/10/10 04:50:00;;;;;;;;;;;9.80;99.90;;;;;;5054336;28;20473;-81
2022/10/10 04:52:25;;;;;;;;;;;9.90;99.90;;;;;;5052567;28;19916;-81
2022/10/10 04:54:50;;;;;;;;;;;9.90;99.90;;;;;;5053735;28;19909;-82
2022/10/10 04:57:16;;;;;;;;;;;9.90;99.90;;;;;;5053784;28;19921;-82
2022/10/10 04:59:42;;;;;;;;;;;9.90;99.90;;;;;;5052258;28;19909;-82
2022/10/10 05:02:08;;;;;;;;;;;9.80;99.90;;;;;;5096713;22;20027;-78
2022/10/10 05:04:34;;;;;;;;;;;9.80;99.90;;;;;;5044463;28;19909;-78
2022/10/10 05:06:59;;;;;;;;;;;9.80;99.90;;;;;;5062756;28;19955;-78
2022/10/10 05:09:25;;;;;;;;;;;9.80;99.90;;;;;;5063401;28;19915;-77
2022/10/10 05:11:50;;;;;;;;;;;9.80;99.90;;;;;;5045731;28;20424;-78
2022/10/10 05:14:16;;;;;;;;;;;9.90;99.90;;;;;;5063868;28;19908;-77
2022/10/10 05:16:41;;;;;;;;;;;9.90;99.90;;;;;;5064693;28;20365;-78
2022/10/10 05:19:07;;;;;;;;;;;9.80;99.90;;;;;;5063925;28;19909;-78
2022/10/10 05:21:33;;;;;;;;;;;9.90;99.90;;;;;;5064071;28;20392;-78
2022/10/10 05:23:58;;;;;;;;;;;9.80;99.90;;;;;;5046322;28;19909;-78
2022/10/10 05:26:24;;;;;;;;;;;9.80;99.90;;;;;;5063830;28;19997;-78
2022/10/10 05:28:49;;;;;;;;;;;9.80;99.90;;;;;;5064293;28;19913;-77
2022/10/10 05:31:15;;;;;;;;;;;9.80;99.90;;;;;;5062984;28;19916;-78
2022/10/10 05:33:40;;;;;;;;;;;9.90;99.90;;;;;;5060415;28;20350;-77
2022/10/10 05:36:07;;;;;;;;;;;9.90;99.90;;;;;;5062762;28;19980;-78
2022/10/10 05:38:32;;;;;;;;;;;9.90;99.90;;;;;;5063720;28;20366;-78
2022/10/10 05:40:58;;;;;;;;;;;9.90;99.90;;;;;;5064531;28;19948;-77
2022/10/10 05:43:24;;;;;;;;;;;9.90;99.90;;;;;;5047591;28;20031;-77
2022/10/10 05:45:49;;;;;;;;;;;9.90;99.90;;;;;;5065365;28;19977;-77
2022/10/10 05:48:14;;;;;;;;;;;9.90;99.90;;;;;;5049751;28;19912;-78
2022/10/10 05:50:44;;;;;;;;;;;9.90;99.90;;;;;;5066651;28;19954;-76
2022/10/10 05:53:10;;;;;;;;;;;9.80;99.90;;;;;;5064071;28;19913;-76
2022/10/10 05:55:35;;;;;;;;;;;9.80;99.90;;;;;;5062725;28;19916;-77
2022/10/10 05:58:01;;;;;;;;;;;9.80;99.90;;;;;;5064188;28;20054;-76
2022/10/10 06:00:26;;;;;;;;;;;9.80;99.90;;;;;;5063712;28;19920;-76
2022/10/10 06:02:52;;;;;;;;;;;9.80;99.90;;;;;;5061540;28;19916;-78
2022/10/10 06:05:17;;;;;;;;;;;9.90;99.90;;;;;;5061786;28;19915;-78
2022/10/10 06:07:43;;;;;;;;;;;9.90;99.90;;;;;;5061912;28;19955;-78
2022/10/10 06:10:08;;;;;;;;;;;9.90;99.90;;;;;;5044507;28;19964;-76
2022/10/10 06:12:34;;;;;;;;;;;9.90;99.90;;;;;;5047365;28;19937;-78
2022/10/10 06:14:59;;;;;;;;;;;10.00;99.90;;;;;;5065422;28;19909;-78
2022/10/10 06:17:25;;;;;;;;;;;10.00;99.90;;;;;;5047087;28;19919;-77
2022/10/10 06:19:53;;;;;;;;;;;10.10;99.90;;;;;;5047866;28;19936;-78
2022/10/10 06:22:18;;;;;;;;;;;10.10;99.90;;;;;;5066459;28;19916;-78
2022/10/10 06:24:44;;;;;;;;;;;10.20;99.90;;;;;;5064836;28;19909;-78
2022/10/10 06:27:10;;;;;;;;;;;10.30;99.90;;;;;;5048271;28;19909;-78
2022/10/10 06:29:35;;;;;;;;;;;10.30;99.90;;;;;;5047380;28;19909;-78
2022/10/10 06:32:00;;;;;;;;;;;10.40;99.90;;;;;;5048717;28;20008;-76
2022/10/10 06:34:26;;;;;;;;;;;10.40;99.90;;;;;;5047146;28;19968;-78
2022/10/10 06:36:52;;;;;;;;;;;10.50;99.90;;;;;;5048160;28;19926;-78
2022/10/10 06:39:17;;;;;;;;;;;10.60;99.90;;;;;;5047491;28;20407;-78
2022/10/10 06:41:43;;;;;;;;;;;10.60;99.90;;;;;;5065400;28;19915;-78
2022/10/10 06:44:09;;;;;;;;;;;10.70;99.90;;;;;;5049299;28;19963;-78
2022/10/10 06:46:36;;;;;;;;;;;10.80;99.90;;;;;;5049112;28;19931;-77
2022/10/10 06:49:02;;;;;;;;;;;10.90;99.90;;;;;;5067580;28;19908;-78
2022/10/10 06:51:28;;;;;;;;;;;11.00;99.90;;;;;;5045910;28;19916;-78
2022/10/10 06:53:55;;;;;;;;;;;11.10;99.90;;;;;;5063308;28;19909;-78
2022/10/10 06:56:21;;;;;;;;;;;11.20;99.90;;;;;;5065459;28;19917;-78
2022/10/10 06:58:47;;;;;;;;;;;11.30;99.90;;;;;;5047787;28;19916;-78
2022/10/10 07:01:13;;;;;;;;;;;11.40;99.90;;;;;;5047774;28;20369;-78
2022/10/10 07:03:38;;;;;;;;;;;11.50;99.90;;;;;;5046750;28;19963;-78
2022/10/10 07:06:07;;;;;;;;;;;11.60;99.90;;;;;;5046737;28;19915;-78
2022/10/10 07:08:33;;;;;;;;;;;11.70;99.90;;;;;;5046600;28;20512;-78
2022/10/10 07:10:58;;;;;;;;;;;11.80;99.90;;;;;;5064391;28;20003;-78
2022/10/10 07:13:24;;;;;;;;;;;11.90;99.90;;;;;;5047341;28;20194;-78
2022/10/10 07:15:51;;;;;;;;;;;12.00;99.90;;;;;;5063984;28;19909;-78
2022/10/10 07:18:17;;;;;;;;;;;12.10;99.90;;;;;;5039811;28;19920;-79
2022/10/10 07:20:43;;;;;;;;;;;12.30;99.90;;;;;;5061458;28;20007;-80
2022/10/10 07:23:08;;;;;;;;;;;12.30;99.90;;;;;;5064996;28;19935;-80
2022/10/10 07:25:36;;;;;;;;;;;12.30;99.90;;;;;;5038578;28;19932;-80
2022/10/10 07:28:01;;;;;;;;;;;12.40;99.90;;;;;;5038739;28;19913;-78
2022/10/10 07:30:27;;;;;;;;;;;12.50;99.90;;;;;;5030578;28;19936;-79
2022/10/10 07:32:53;;;;;;;;;;;12.60;99.90;;;;;;5052238;28;19909;-80
2022/10/10 07:35:20;;;;;;;;;;;12.80;99.90;;;;;;5051575;28;19913;-79
2022/10/10 07:37:46;;;;;;;;;;;12.90;99.90;;;;;;5055560;28;19912;-80
2022/10/10 07:40:11;;;;;;;;;;;13.00;99.90;;;;;;5055080;28;20358;-79
2022/10/10 07:42:37;;;;;;;;;;;13.10;99.90;;;;;;5055706;28;19913;-80
2022/10/10 07:45:03;;;;;;;;;;;13.20;99.90;;;;;;5057900;28;19909;-80
2022/10/10 07:47:28;;;;;;;;;;;13.30;99.90;;;;;;5056825;28;19909;-79
2022/10/10 07:49:54;;;;;;;;;;;13.40;99.90;;;;;;5038957;28;19915;-80
2022/10/10 07:52:19;;;;;;;;;;;13.40;99.90;;;;;;5037907;28;19909;-80
2022/10/10 07:54:45;;;;;;;;;;;13.40;99.90;;;;;;5062518;28;19967;-80
2022/10/10 07:57:10;;;;;;;;;;;13.50;99.90;;;;;;5056128;28;19920;-81
2022/10/10 07:59:36;;;;;;;;;;;13.60;99.90;;;;;;5054775;28;20008;-81
2022/10/10 08:02:01;;;;;;;;;;;13.70;99.90;;;;;;5035846;28;19923;-80
2022/10/10 08:04:27;;;;;;;;;;;13.80;99.90;;;;;;5031765;28;19940;-80
2022/10/10 08:06:52;;;;;;;;;;;13.90;99.90;;;;;;5031345;28;19963;-80
2022/10/10 08:09:18;;;;;;;;;;;13.90;99.90;;;;;;5057314;28;19909;-79
2022/10/10 08:11:43;;;;;;;;;;;13.90;99.90;;;;;;5041671;28;19909;-78
2022/10/10 08:14:09;;;;;;;;;;;14.00;99.90;;;;;;5059912;28;19912;-77
2022/10/10 08:16:34;;;;;;;;;;;14.00;99.90;;;;;;5059039;28;19967;-79
2022/10/10 08:19:00;;;;;;;;;;;14.10;99.90;;;;;;5041285;28;19916;-78
2022/10/10 08:21:25;;;;;;;;;;;14.10;99.90;;;;;;5058553;28;19908;-79
2022/10/10 08:23:51;;;;;;;;;;;14.10;99.90;;;;;;5057861;28;19909;-79
2022/10/10 08:26:17;;;;;;;;;;;14.00;99.90;;;;;;5059609;28;19999;-79
2022/10/10 08:28:42;;;;;;;;;;;14.00;99.90;;;;;;5039879;28;19915;-79
2022/10/10 08:31:09;;;;;;;;;;;14.10;99.90;;;;;;5057103;28;20003;-79
2022/10/10 08:33:35;;;;;;;;;;;14.10;99.90;;;;;;5059109;28;19916;-79
2022/10/10 08:36:11;;;;;;;;;;;14.20;99.90;;;;;;5057518;28;19952;-77
2022/10/10 08:38:36;;;;;;;;;;;14.20;99.90;;;;;;5063499;28;20005;-82
2022/10/10 08:41:06;;;;;;;;;;;14.30;99.90;;;;;;5039186;28;19912;-80
2022/10/10 08:43:34;;;;;;;;;;;14.30;99.90;;;;;;5037887;28;19979;-80
2022/10/10 08:46:07;;;;;;;;;;;14.50;99.90;;;;;;5056300;28;19913;-80
2022/10/10 08:48:32;;;;;;;;;;;14.70;99.90;;;;;;5055418;28;19913;-80
2022/10/10 08:51:03;;;;;;;;;;;14.70;99.90;;;;;;5057568;28;20341;-80
2022/10/10 08:53:33;;;;;;;;;;;14.80;99.90;;;;;;5040759;28;20286;-79
2022/10/10 08:55:59;;;;;;;;;;;15.00;99.90;;;;;;5041517;28;19909;-79
2022/10/10 08:58:37;;;;;;;;;;;15.20;99.90;;;;;;5043288;28;19936;-80
2022/10/10 09:01:18;;;;;;;;;;;15.30;99.90;;;;;;5057457;28;19999;-80
2022/10/10 09:03:54;;;;;;;;;;;15.40;99.90;;;;;;5041654;28;19912;-79
2022/10/10 09:06:28;;;;;;;;;;;15.50;99.90;;;;;;5039482;28;20014;-81
2022/10/10 09:08:59;;;;;;;;;;;15.70;99.90;;;;;;5062233;28;20390;-79
2022/10/10 09:11:41;;;;;;;;;;;15.90;99.90;;;;;;5058713;28;20282;-79
2022/10/10 09:14:10;;;;;;;;;;;16.00;99.90;;;;;;5042515;28;20011;-81
2022/10/10 09:16:39;;;;;;;;;;;16.00;99.90;;;;;;5061735;28;19964;-79
2022/10/10 09:19:04;;;;;;;;;;;16.00;99.90;;;;;;5061223;28;20317;-80
2022/10/10 09:21:35;;;;;;;;;;;16.20;99.90;;;;;;5041528;28;19917;-78
2022/10/10 09:24:03;;;;;;;;;;;16.40;99.90;;;;;;5058671;28;19909;-79
2022/10/10 09:26:35;;;;;;;;;;;16.50;99.90;;;;;;5059710;28;19915;-79
2022/10/10 09:29:03;;;;;;;;;;;16.70;99.90;;;;;;5058795;28;19909;-79
2022/10/10 09:31:33;;;;;;;;;;;16.80;99.90;;;;;;5042806;28;20302;-79
2022/10/10 09:34:11;;;;;;;;;;;16.90;99.90;;;;;;5040389;28;19919;-79
2022/10/10 09:36:36;;;;;;;;;;;17.00;99.90;;;;;;5058675;28;19967;-79
2022/10/10 09:39:22;;;;;;;;;;;17.10;99.90;;;;;;5038801;28;20282;-79
2022/10/10 09:41:51;;;;;;;;;;;17.30;99.90;;;;;;5041225;28;19917;-79
2022/10/10 09:44:17;;;;;;;;;;;17.50;99.90;;;;;;5039830;28;19909;-78
2022/10/10 09:46:43;;;;;;;;;;;17.70;99.90;;;;;;5056826;28;20313;-79
2022/10/10 09:49:10;;;;;;;;;;;17.80;99.90;;;;;;5056633;28;19913;-79
2022/10/10 09:51:36;;;;;;;;;;;18.00;99.90;;;;;;5058596;28;19916;-80
2022/10/10 09:54:03;;;;;;;;;;;18.20;99.90;;;;;;5058776;28;19909;-78
2022/10/10 09:56:49;;;;;;;;;;;18.30;99.90;;;;;;5058442;28;20405;-79
2022/10/10 09:59:36;;;;;;;;;;;18.50;99.90;;;;;;5059190;28;20426;-79
2022/10/10 10:02:03;;;;;;;;;;;18.70;99.90;;;;;;5057111;28;19920;-79
2022/10/10 10:04:32;;;;;;;;;;;19.00;99.90;;;;;;5057469;28;19915;-78
2022/10/10 10:07:22;;;;;;;;;;;19.70;99.90;;;;;;5037962;28;20298;-79
2022/10/10 10:09:58;;;;;;;;;;;20.20;99.90;;;;;;5037605;28;20290;-79
2022/10/10 10:12:26;;;;;;;;;;;21.00;99.90;;;;;;5056251;28;19909;-79
2022/10/10 10:14:56;;;;;;;;;;;21.70;99.90;;;;;;5038388;28;19967;-79
2022/10/10 10:17:22;;;;;;;;;;;22.50;99.90;;;;;;5037460;28;19920;-79
2022/10/10 10:19:47;;;;;;;;;;;22.90;99.90;;;;;;5038401;28;19909;-80
2022/10/10 10:22:23;;;;;;;;;;;22.80;99.90;;;;;;5038249;28;19995;-79
2022/10/10 10:24:49;;;;;;;;;;;22.50;99.90;;;;;;5054604;28;20118;-79
2022/10/10 10:27:18;;;;;;;;;;;22.40;99.90;;;;;;5054877;28;19932;-79
2022/10/10 10:29:49;;;;;;;;;;;22.40;99.90;;;;;;5055833;28;20294;-80
2022/10/10 10:32:22;;;;;;;;;;;22.20;99.90;;;;;;5036790;28;19915;-80
2022/10/10 10:35:04;;;;;;;;;;;22.00;99.90;;;;;;5055863;28;19916;-79
2022/10/10 10:37:38;;;;;;;;;;;21.90;99.90;;;;;;5056129;28;19917;-79
2022/10/10 10:40:16;;;;;;;;;;;21.90;99.90;;;;;;5037802;28;19932;-80
2022/10/10 10:43:06;;;;;;;;;;;21.50;99.90;;;;;;5038110;28;19915;-79
2022/10/10 10:45:31;;;;;;;;;;;21.50;99.90;;;;;;5057188;28;19932;-80
2022/10/10 10:48:04;;;;;;;;;;;21.30;99.90;;;;;;5036970;28;20370;-79
2022/10/10 10:50:39;;;;;;;;;;;21.30;99.90;;;;;;5036547;28;19958;-78
2022/10/10 10:53:23;;;;;;;;;;;21.20;99.90;;;;;;5056551;28;19909;-79
2022/10/10 10:55:58;;;;;;;;;;;20.90;99.90;;;;;;5055613;28;19913;-79
2022/10/10 10:58:35;;;;;;;;;;;20.80;99.90;;;;;;5056618;28;20362;-79
2022/10/10 11:01:03;;;;;;;;;;;20.90;99.90;;;;;;5058138;28;19913;-79
2022/10/10 11:03:47;;;;;;;;;;;20.90;99.90;;;;;;5071363;22;19948;-78
2022/10/10 11:06:31;;;;;;;;;;;21.10;99.90;;;;;;5065606;28;19909;-81
2022/10/10 11:08:56;;;;;;;;;;;21.50;99.90;;;;;;5052764;28;19913;-79
2022/10/10 11:11:30;;;;;;;;;;;22.80;99.90;;;;;;5036723;28;19916;-80
2022/10/10 11:14:00;;;;;;;;;;;23.10;99.90;;;;;;5035101;28;20353;-79
2022/10/10 11:16:25;;;;;;;;;;;22.80;99.90;;;;;;5035204;28;19909;-78
2022/10/10 11:19:01;;;;;;;;;;;22.90;99.90;;;;;;5037464;28;19913;-79
2022/10/10 11:21:30;;;;;;;;;;;22.90;99.90;;;;;;5052640;28;19920;-80
2022/10/10 11:23:59;;;;;;;;;;;22.40;99.90;;;;;;5037107;28;19909;-79
2022/10/10 11:26:34;;;;;;;;;;;22.30;99.90;;;;;;5037356;28;19910;-78
2022/10/10 11:29:12;;;;;;;;;;;22.40;99.90;;;;;;5037398;28;19909;-78
2022/10/10 11:31:43;;;;;;;;;;;22.20;99.90;;;;;;5037197;28;19913;-79
2022/10/10 11:34:14;;;;;;;;;;;22.10;99.90;;;;;;5036994;28;19913;-79
2022/10/10 11:36:42;;;;;;;;;;;22.20;99.90;;;;;;5036340;28;19920;-80
2022/10/10 11:39:28;;;;;;;;;;;22.40;99.90;;;;;;5035603;28;19932;-78
2022/10/10 11:41:58;;;;;;;;;;;22.60;99.90;;;;;;5052061;28;19909;-80
2022/10/10 11:44:26;;;;;;;;;;;22.10;99.90;;;;;;5052207;28;19916;-79
2022/10/10 11:47:07;;;;;;;;;;;22.20;99.90;;;;;;5034858;28;19954;-79
2022/10/10 11:49:32;;;;;;;;;;;22.30;99.90;;;;;;5034898;28;19910;-78
2022/10/10 11:52:13;;;;;;;;;;;22.30;99.90;;;;;;5036147;28;19920;-80
2022/10/10 11:54:44;;;;;;;;;;;22.00;99.90;;;;;;5036970;28;20012;-77
2022/10/10 11:57:17;;;;;;;;;;;21.80;99.90;;;;;;5034428;28;20414;-79
2022/10/10 11:59:52;;;;;;;;;;;21.80;99.90;;;;;;5034852;28;19909;-78
2022/10/10 12:02:20;;;;;;;;;;;21.90;99.90;;;;;;5034124;28;19928;-79
2022/10/10 12:04:46;;;;;;;;;;;21.90;99.90;;;;;;5034292;28;19916;-79
2022/10/10 12:07:21;;;;;;;;;;;21.80;99.90;;;;;;5034217;28;19909;-79
2022/10/10 12:09:51;;;;;;;;;;;21.80;99.90;;;;;;5034387;28;19913;-77
2022/10/10 12:12:16;;;;;;;;;;;21.70;99.90;;;;;;5035296;28;20454;-79
2022/10/10 12:14:43;;;;;;;;;;;21.80;99.90;;;;;;5034839;28;20016;-80
2022/10/10 12:17:24;;;;;;;;;;;21.70;99.90;;;;;;5035103;28;19913;-78
2022/10/10 12:19:50;;;;;;;;;;;21.70;99.90;;;;;;5033991;28;20017;-79
2022/10/10 12:22:24;;;;;;;;;;;21.90;99.90;;;;;;5033412;28;19909;-78
2022/10/10 12:25:08;;;;;;;;;;;21.90;99.90;;;;;;5034950;28;19939;-78
2022/10/10 12:27:41;;;;;;;;;;;22.10;99.90;;;;;;5033158;28;19916;-79
2022/10/10 12:30:07;;;;;;;;;;;22.10;99.90;;;;;;5033835;28;20371;-80
2022/10/10 12:32:37;;;;;;;;;;;22.00;99.90;;;;;;5034245;28;19909;-78
2022/10/10 12:35:22;;;;;;;;;;;22.10;99.90;;;;;;5034153;28;19909;-78
2022/10/10 12:38:03;;;;;;;;;;;22.30;99.90;;;;;;5033758;28;19921;-78
2022/10/10 12:40:29;;;;;;;;;;;22.60;99.90;;;;;;5034786;28;19959;-78
2022/10/10 12:42:54;;;;;;;;;;;22.80;99.90;;;;;;5035141;28;19909;-79
2022/10/10 12:45:29;;;;;;;;;;;22.60;99.90;;;;;;5034665;28;19915;-77
2022/10/10 12:47:55;;;;;;;;;;;22.70;99.90;;;;;;5034619;28;19933;-77
2022/10/10 12:50:25;;;;;;;;;;;22.70;99.90;;;;;;5034348;28;19967;-78
2022/10/10 12:52:51;;;;;;;;;;;22.70;99.90;;;;;;5034423;28;20377;-78
2022/10/10 12:55:16;;;;;;;;;;;22.70;99.90;;;;;;5032970;28;19914;-78
2022/10/10 12:57:43;;;;;;;;;;;22.70;99.90;;;;;;5034255;28;19955;-78
2022/10/10 13:00:20;;;;;;;;;;;22.60;99.90;;;;;;5051199;28;19909;-79
2022/10/10 13:02:46;;;;;;;;;;;22.50;99.90;;;;;;5036433;28;19921;-78
2022/10/10 13:05:14;;;;;;;;;;;22.70;99.90;;;;;;5053341;28;19909;-78
2022/10/10 13:07:40;;;;;;;;;;;22.80;99.90;;;;;;5037711;28;19909;-78
2022/10/10 13:10:07;;;;;;;;;;;22.90;99.90;;;;;;5052490;28;19909;-78
2022/10/10 13:12:33;;;;;;;;;;;23.50;99.90;;;;;;5035952;28;19909;-78
2022/10/10 13:14:58;;;;;;;;;;;23.60;99.90;;;;;;5051285;28;19967;-78
2022/10/10 13:17:24;;;;;;;;;;;23.60;99.90;;;;;;5036937;28;19913;-79
2022/10/10 13:19:50;;;;;;;;;;;23.30;99.90;;;;;;5037393;28;20420;-79
2022/10/10 13:22:16;;;;;;;;;;;23.40;99.90;;;;;;5036039;28;19952;-78
2022/10/10 13:24:42;;;;;;;;;;;23.30;99.90;;;;;;5035477;28;20286;-79
2022/10/10 13:27:14;;;;;;;;;;;23.30;99.90;;;;;;5035418;28;20004;-79
2022/10/10 13:29:40;;;;;;;;;;;22.90;99.90;;;;;;5035595;28;20286;-78
2022/10/10 13:32:12;;;;;;;;;;;22.90;99.90;;;;;;5042966;28;19913;-78
2022/10/10 13:34:40;;;;;;;;;;;22.80;99.90;;;;;;5047821;28;19917;-78
2022/10/10 13:37:06;;;;;;;;;;;22.70;99.90;;;;;;5051339;28;20259;-78
2022/10/10 13:39:34;;;;;;;;;;;22.70;99.90;;;;;;5052799;28;19959;-79
2022/10/10 13:41:59;;;;;;;;;;;22.90;99.90;;;;;;5051260;28;20007;-78
2022/10/10 13:44:30;;;;;;;;;;;22.90;99.90;;;;;;5047737;28;19959;-78
2022/10/10 13:46:56;;;;;;;;;;;23.00;99.90;;;;;;5038338;28;19923;-78
2022/10/10 13:49:24;;;;;;;;;;;22.80;99.90;;;;;;5052891;28;19909;-78
2022/10/10 13:52:18;;;;;;;;;;;22.90;99.90;;;;;;5050956;28;19991;-78
2022/10/10 13:54:47;;;;;;;;;;;23.10;99.90;;;;;;5052229;28;19932;-78
2022/10/10 13:57:23;;;;;;;;;;;23.20;99.90;;;;;;5042565;28;19917;-79
2022/10/10 14:00:04;;;;;;;;;;;23.20;99.90;;;;;;5046121;28;19909;-79
2022/10/10 14:02:31;;;;;;;;;;;23.00;99.90;;;;;;5032596;28;19957;-79
2022/10/10 14:04:57;;;;;;;;;;;22.60;99.90;;;;;;5047208;28;19909;-78
2022/10/10 14:07:24;;;;;;;;;;;22.40;99.90;;;;;;5032408;28;20290;-78
2022/10/10 14:09:54;;;;;;;;;;;22.30;99.90;;;;;;5032360;28;19952;-78
2022/10/10 14:12:31;;;;;;;;;;;22.20;99.90;;;;;;5032247;28;19909;-79
2022/10/10 14:14:58;;;;;;;;;;;22.30;99.90;;;;;;5032135;28;20343;-78
2022/10/10 14:17:24;;;;;;;;;;;22.30;99.90;;;;;;5032296;28;19913;-79
2022/10/10 14:19:49;;;;;;;;;;;22.10;99.90;;;;;;5033387;28;20487;-78
2022/10/10 14:22:15;;;;;;;;;;;22.00;99.90;;;;;;5048997;28;19916;-78
2022/10/10 14:24:41;;;;;;;;;;;21.90;99.90;;;;;;5034112;28;20012;-78
2022/10/10 14:27:11;;;;;;;;;;;21.90;99.90;;;;;;5062243;28;19967;-79
2022/10/10 14:29:38;;;;;;;;;;;21.80;99.90;;;;;;5040853;28;19917;-80